createdAt,value
2023-03-05T00:01:13.862Z,89.40
2023-03-05T00:02:45.835Z,89.52
2023-03-05T00:04:17.778Z,89.26
2023-03-05T00:05:49.767Z,89.42
2023-03-05T00:07:21.550Z,89.20
2023-03-05T00:08:53.826Z,89.14
2023-03-05T00:10:25.630Z,89.18
2023-03-05T00:11:57.475Z,88.98
2023-03-05T00:15:07.275Z,89.03
2023-03-05T00:16:39.264Z,89.02
2023-03-05T00:18:11.187Z,88.79
2023-03-05T00:19:42.966Z,88.68
2023-03-05T00:21:22.045Z,88.89
2023-03-05T00:22:53.870Z,88.75
2023-03-05T00:24:25.816Z,88.97
2023-03-05T00:25:57.706Z,89.01
2023-03-05T00:27:29.561Z,89.02
2023-03-05T00:30:35.500Z,88.71
2023-03-05T00:32:07.483Z,88.90
2023-03-05T00:33:39.424Z,88.73
2023-03-05T00:35:11.431Z,88.94
2023-03-05T00:36:43.812Z,89.21
2023-03-05T00:38:15.693Z,89.15
2023-03-05T00:39:47.617Z,89.57
2023-03-05T00:41:19.433Z,89.75
2023-03-05T00:42:51.219Z,89.53
2023-03-05T00:44:23.182Z,89.55
2023-03-05T00:45:55.035Z,89.37
2023-03-05T00:47:27.372Z,89.64
2023-03-05T00:48:59.350Z,89.56
2023-03-05T00:50:31.174Z,89.72
2023-03-05T00:52:03.057Z,89.74
2023-03-05T00:53:34.969Z,89.78
2023-03-05T00:55:06.985Z,89.56
2023-03-05T00:56:38.866Z,89.65
2023-03-05T00:58:10.709Z,89.82
2023-03-05T00:59:42.473Z,89.64
2023-03-05T01:01:14.390Z,89.69
2023-03-05T01:02:46.284Z,89.46
2023-03-05T01:04:18.910Z,89.45
2023-03-05T01:05:50.693Z,89.39
2023-03-05T01:07:22.528Z,89.25
2023-03-05T01:08:54.441Z,89.31
2023-03-05T01:10:27.027Z,89.15
2023-03-05T01:12:00.379Z,89.24
2023-03-05T01:13:32.412Z,89.28
2023-03-05T01:15:04.665Z,89.20
2023-03-05T01:16:36.459Z,88.97
2023-03-05T01:18:08.320Z,89.05
2023-03-05T01:19:40.226Z,88.88
2023-03-05T01:21:12.100Z,89.16
2023-03-05T01:22:43.935Z,89.12
2023-03-05T01:24:15.756Z,89.22
2023-03-05T01:25:53.481Z,89.22
2023-03-05T01:27:25.280Z,89.48
2023-03-05T01:28:57.164Z,89.58
2023-03-05T01:30:29.023Z,89.62
2023-03-05T01:32:02.649Z,89.62
2023-03-05T01:33:34.560Z,89.61
2023-03-05T01:35:06.654Z,89.44
2023-03-05T01:36:38.477Z,89.52
2023-03-05T01:38:10.256Z,89.58
2023-03-05T01:39:42.127Z,89.50
2023-03-05T01:41:15.019Z,89.40
2023-03-05T01:42:47.461Z,89.17
2023-03-05T01:44:23.409Z,89.10
2023-03-05T01:46:13.649Z,89.26
2023-03-05T01:47:45.560Z,89.21
2023-03-05T01:49:19.157Z,89.23
2023-03-05T01:50:50.965Z,89.19
2023-03-05T01:52:23.785Z,89.02
2023-03-05T01:53:55.745Z,89.14
2023-03-05T01:55:28.939Z,88.91
2023-03-05T01:57:02.482Z,89.04
2023-03-05T01:58:34.484Z,88.98
2023-03-05T02:00:08.854Z,88.68
2023-03-05T02:01:41.973Z,88.85
2023-03-05T02:03:13.818Z,88.57
2023-03-05T02:05:06.667Z,88.50
2023-03-05T02:06:39.229Z,88.66
2023-03-05T02:08:12.991Z,88.47
2023-03-05T02:09:44.881Z,88.42
2023-03-05T02:11:16.714Z,88.36
2023-03-05T02:12:51.320Z,88.40
2023-03-05T02:14:24.618Z,88.53
2023-03-05T02:15:57.226Z,88.20
2023-03-05T02:17:29.134Z,88.22
2023-03-05T02:19:00.932Z,88.02
2023-03-05T02:20:43.816Z,87.86
2023-03-05T02:22:16.661Z,87.34
2023-03-05T02:23:48.680Z,87.36
2023-03-05T02:25:24.838Z,85.33
2023-03-05T02:26:56.630Z,83.94
2023-03-05T02:28:33.056Z,83.16
2023-03-05T02:30:05.297Z,82.52
2023-03-05T02:31:39.288Z,79.89
2023-03-05T02:33:11.115Z,75.41
2023-03-05T02:34:42.996Z,75.51
2023-03-05T02:36:14.837Z,75.00
2023-03-05T02:39:26.458Z,72.27
2023-03-05T02:40:58.231Z,71.27
2023-03-05T02:42:33.750Z,70.70
2023-03-05T02:44:05.676Z,70.33
2023-03-05T02:45:38.035Z,70.00
2023-03-05T02:47:09.950Z,70.54
2023-03-05T02:48:41.819Z,69.21
2023-03-05T02:50:13.675Z,68.58
2023-03-05T02:51:45.602Z,68.26
2023-03-05T02:53:17.425Z,67.35
2023-03-05T02:54:49.829Z,67.09
2023-03-05T02:56:21.734Z,67.51
2023-03-05T02:57:53.754Z,66.56
2023-03-05T02:59:25.599Z,66.31
2023-03-05T03:01:00.379Z,66.35
2023-03-05T03:02:32.383Z,66.20
2023-03-05T03:04:04.256Z,66.04
2023-03-05T03:05:36.663Z,65.69
2023-03-05T03:07:08.464Z,66.36
2023-03-05T03:08:40.346Z,66.73
2023-03-05T03:10:12.630Z,65.96
2023-03-05T03:11:47.659Z,66.04
2023-03-05T03:13:19.503Z,65.69
2023-03-05T03:14:51.436Z,65.54
2023-03-05T03:16:23.302Z,65.11
2023-03-05T03:17:55.413Z,65.38
2023-03-05T03:19:27.296Z,65.50
2023-03-05T03:20:59.184Z,65.54
2023-03-05T03:22:31.001Z,66.07
2023-03-05T03:24:02.801Z,65.46
2023-03-05T03:25:34.681Z,65.37
2023-03-05T03:27:06.814Z,64.83
2023-03-05T03:28:38.627Z,65.17
2023-03-05T03:30:10.791Z,65.15
2023-03-05T03:31:42.723Z,64.87
2023-03-05T03:33:14.575Z,65.14
2023-03-05T03:34:48.409Z,65.02
2023-03-05T03:36:20.176Z,64.97
2023-03-05T03:37:51.982Z,65.07
2023-03-05T03:39:25.791Z,64.43
2023-03-05T03:40:57.674Z,64.62
2023-03-05T03:44:03.857Z,64.64
2023-03-05T03:45:35.849Z,64.78
2023-03-05T03:47:07.650Z,64.45
2023-03-05T03:48:39.487Z,64.51
2023-03-05T03:50:11.634Z,64.62
2023-03-05T03:51:43.599Z,64.69
2023-03-05T03:53:16.529Z,64.57
2023-03-05T03:54:48.432Z,64.20
2023-03-05T03:56:20.215Z,64.22
2023-03-05T03:57:52.142Z,63.54
2023-03-05T03:59:24.110Z,64.04
2023-03-05T04:00:55.903Z,63.24
2023-03-05T04:02:27.886Z,63.15
2023-03-05T04:03:59.780Z,63.21
2023-03-05T04:05:31.595Z,63.24
2023-03-05T04:07:03.480Z,62.98
2023-03-05T04:08:35.638Z,63.05
2023-03-05T04:10:07.882Z,62.67
2023-03-05T04:13:13.463Z,63.29
2023-03-05T04:14:48.366Z,63.67
2023-03-05T04:16:20.151Z,63.67
2023-03-05T04:17:52.081Z,63.38
2023-03-05T04:19:23.947Z,63.23
2023-03-05T04:20:55.802Z,63.61
2023-03-05T04:22:27.676Z,63.46
2023-03-05T04:24:00.598Z,63.58
2023-03-05T04:25:32.421Z,63.63
2023-03-05T04:27:04.334Z,63.36
2023-03-05T04:28:36.178Z,63.39
2023-03-05T04:30:08.846Z,63.69
2023-03-05T04:31:40.664Z,63.64
2023-03-05T04:33:12.452Z,64.08
2023-03-05T04:34:44.272Z,64.06
2023-03-05T04:36:16.166Z,64.37
2023-03-05T04:37:47.997Z,64.30
2023-03-05T04:39:23.806Z,63.73
2023-03-05T04:42:28.566Z,64.15
2023-03-05T04:44:00.464Z,63.42
2023-03-05T04:45:32.472Z,63.67
2023-03-05T04:47:04.315Z,63.58
2023-03-05T04:48:36.255Z,63.81
2023-03-05T04:50:08.704Z,63.72
2023-03-05T04:51:40.527Z,63.93
2023-03-05T04:53:12.395Z,63.51
2023-03-05T04:54:44.980Z,64.15
2023-03-05T04:56:16.923Z,64.52
2023-03-05T04:57:48.895Z,65.57
2023-03-05T04:59:20.682Z,65.27
2023-03-05T05:00:52.538Z,65.27
2023-03-05T05:02:24.358Z,65.53
2023-03-05T05:03:56.163Z,66.46
2023-03-05T05:05:28.218Z,66.76
2023-03-05T05:07:00.246Z,66.90
2023-03-05T05:08:32.052Z,67.76
2023-03-05T05:10:04.132Z,68.49
2023-03-05T05:11:35.907Z,69.40
2023-03-05T05:13:07.785Z,69.99
2023-03-05T05:14:39.637Z,69.87
2023-03-05T05:16:11.654Z,70.41
2023-03-05T05:17:43.966Z,70.65
2023-03-05T05:19:15.992Z,70.75
2023-03-05T05:20:48.387Z,70.98
2023-03-05T05:22:20.343Z,70.86
2023-03-05T05:23:52.218Z,70.77
2023-03-05T05:25:24.225Z,70.87
2023-03-05T05:26:56.121Z,71.55
2023-03-05T05:28:28.349Z,71.98
2023-03-05T05:30:00.452Z,71.96
2023-03-05T05:31:32.426Z,71.39
2023-03-05T05:33:04.251Z,70.90
2023-03-05T05:34:36.122Z,70.87
2023-03-05T05:36:09.064Z,71.02
2023-03-05T05:37:40.988Z,70.35
2023-03-05T05:40:53.918Z,69.57
2023-03-05T05:42:26.555Z,71.81
2023-03-05T05:43:58.406Z,71.08
2023-03-05T05:45:30.418Z,69.80
2023-03-05T05:47:02.423Z,69.36
2023-03-05T05:48:38.771Z,69.93
2023-03-05T05:50:11.515Z,70.01
2023-03-05T05:51:43.460Z,69.81
2023-03-05T05:53:15.388Z,69.79
2023-03-05T05:54:47.495Z,70.69
2023-03-05T05:56:19.602Z,70.68
2023-03-05T05:57:51.592Z,70.24
2023-03-05T05:59:23.630Z,69.96
2023-03-05T06:00:55.483Z,69.47
2023-03-05T06:02:28.132Z,68.85
2023-03-05T06:04:00.204Z,68.47
2023-03-05T06:05:32.101Z,67.04
2023-03-05T06:07:04.184Z,67.22
2023-03-05T06:08:36.175Z,67.40
2023-03-05T06:10:08.626Z,66.10
2023-03-05T06:11:40.510Z,66.01
2023-03-05T06:13:12.430Z,65.58
2023-03-05T06:16:24.409Z,65.42
2023-03-05T06:17:56.260Z,66.04
2023-03-05T06:19:28.124Z,65.91
2023-03-05T06:21:07.087Z,65.95
2023-03-05T06:22:39.384Z,65.51
2023-03-05T06:24:11.585Z,66.13
2023-03-05T06:25:43.465Z,65.18
2023-03-05T06:27:15.460Z,65.82
2023-03-05T06:28:47.519Z,65.63
2023-03-05T06:30:19.494Z,65.37
2023-03-05T06:31:51.411Z,64.92
2023-03-05T06:33:23.297Z,65.22
2023-03-05T06:34:55.326Z,64.69
2023-03-05T06:36:27.316Z,63.70
2023-03-05T06:37:59.199Z,64.05
2023-03-05T06:39:31.915Z,64.00
2023-03-05T06:41:09.651Z,64.09
2023-03-05T06:42:41.725Z,63.67
2023-03-05T06:44:13.622Z,62.97
2023-03-05T06:45:45.522Z,63.00
2023-03-05T06:47:17.452Z,62.41
2023-03-05T06:48:49.678Z,62.53
2023-03-05T06:50:21.545Z,62.54
2023-03-05T06:51:53.436Z,62.70
2023-03-05T06:53:25.681Z,62.51
2023-03-05T06:54:57.621Z,62.27
2023-03-05T06:56:29.572Z,61.90
2023-03-05T06:58:01.525Z,61.13
2023-03-05T06:59:33.437Z,61.76
2023-03-05T07:01:06.766Z,60.93
2023-03-05T07:02:38.783Z,60.56
2023-03-05T07:04:11.439Z,59.84
2023-03-05T07:05:43.588Z,60.34
2023-03-05T07:07:15.443Z,59.68
2023-03-05T07:08:47.539Z,59.49
2023-03-05T07:10:19.864Z,59.55
2023-03-05T07:11:51.749Z,59.97
2023-03-05T07:15:05.299Z,59.20
2023-03-05T07:16:37.255Z,59.53
2023-03-05T07:18:09.397Z,58.99
2023-03-05T07:19:41.254Z,58.95
2023-03-05T07:21:15.945Z,59.00
2023-03-05T07:22:47.841Z,57.97
2023-03-05T07:24:19.742Z,58.12
2023-03-05T07:25:51.750Z,57.65
2023-03-05T07:27:25.918Z,57.48
2023-03-05T07:29:00.151Z,57.41
2023-03-05T07:30:32.295Z,57.62
2023-03-05T07:32:04.367Z,57.86
2023-03-05T07:33:37.551Z,58.04
2023-03-05T07:35:09.733Z,58.54
2023-03-05T07:36:42.719Z,58.43
2023-03-05T07:38:14.632Z,58.12
2023-03-05T07:39:47.395Z,58.03
2023-03-05T07:41:23.936Z,58.58
2023-03-05T07:42:55.890Z,57.20
2023-03-05T07:44:27.866Z,56.29
2023-03-05T07:45:59.983Z,56.73
2023-03-05T07:47:32.153Z,56.80
2023-03-05T07:49:04.137Z,56.93
2023-03-05T07:50:36.054Z,56.77
2023-03-05T07:52:08.598Z,57.66
2023-03-05T07:53:40.865Z,57.19
2023-03-05T07:55:12.843Z,57.47
2023-03-05T07:56:44.740Z,57.14
2023-03-05T07:58:19.254Z,56.65
2023-03-05T07:59:51.119Z,56.90
2023-03-05T08:01:23.100Z,56.96
2023-03-05T08:02:55.044Z,56.54
2023-03-05T08:04:27.128Z,56.80
2023-03-05T08:05:59.130Z,57.15
2023-03-05T08:07:30.963Z,55.90
2023-03-05T08:09:02.905Z,55.39
2023-03-05T08:10:35.537Z,56.22
2023-03-05T08:12:07.694Z,56.55
2023-03-05T08:13:39.792Z,55.89
2023-03-05T08:15:12.169Z,55.41
2023-03-05T08:16:45.726Z,54.75
2023-03-05T08:18:19.871Z,54.06
2023-03-05T08:19:51.737Z,54.03
2023-03-05T08:21:27.266Z,54.06
2023-03-05T08:22:59.094Z,54.06
2023-03-05T08:24:30.976Z,53.37
2023-03-05T08:26:03.230Z,51.82
2023-03-05T08:27:39.594Z,51.85
2023-03-05T08:29:11.494Z,53.11
2023-03-05T08:30:43.516Z,52.31
2023-03-05T08:32:15.473Z,52.43
2023-03-05T08:33:47.858Z,52.89
2023-03-05T08:35:19.805Z,52.94
2023-03-05T08:36:51.910Z,52.95
2023-03-05T08:38:23.922Z,52.40
2023-03-05T08:39:56.788Z,52.17
2023-03-05T08:41:28.783Z,52.05
2023-03-05T08:44:45.819Z,51.98
2023-03-05T08:46:17.873Z,51.69
2023-03-05T08:47:49.838Z,51.26
2023-03-05T08:49:22.010Z,49.62
2023-03-05T08:50:54.844Z,49.21
2023-03-05T08:52:27.613Z,49.16
2023-03-05T08:54:00.112Z,50.17
2023-03-05T08:55:32.034Z,50.91
2023-03-05T08:57:04.154Z,48.61
2023-03-05T08:58:36.145Z,48.54
2023-03-05T09:00:10.643Z,49.20
2023-03-05T09:01:42.555Z,47.47
2023-03-05T09:03:14.478Z,48.38
2023-03-05T09:04:46.573Z,48.10
2023-03-05T09:06:18.395Z,47.88
2023-03-05T09:07:50.420Z,47.95
2023-03-05T09:09:23.273Z,46.58
2023-03-05T09:10:55.234Z,46.29
2023-03-05T09:12:27.133Z,46.71
2023-03-05T09:15:35.327Z,44.94
2023-03-05T09:17:07.346Z,45.45
2023-03-05T09:18:40.656Z,44.54
2023-03-05T09:20:13.097Z,44.29
2023-03-05T09:21:45.115Z,41.08
2023-03-05T09:23:17.045Z,40.80
2023-03-05T09:24:49.005Z,39.58
2023-03-05T09:26:21.021Z,38.86
2023-03-05T09:27:53.054Z,38.81
2023-03-05T09:29:25.055Z,39.29
2023-03-05T09:30:56.999Z,39.45
2023-03-05T09:32:28.904Z,39.62
2023-03-05T09:34:00.902Z,40.92
2023-03-05T09:35:34.910Z,38.10
2023-03-05T09:37:06.892Z,39.46
2023-03-05T09:38:39.578Z,38.67
2023-03-05T09:40:15.368Z,38.25
2023-03-05T09:41:55.007Z,38.99
2023-03-05T09:43:39.169Z,39.11
2023-03-05T09:45:29.914Z,39.68
2023-03-05T09:47:41.020Z,39.25
2023-03-05T09:49:22.075Z,39.90
2023-03-05T09:51:00.730Z,40.55
2023-03-05T09:52:35.639Z,41.89
2023-03-05T09:54:11.399Z,41.69
2023-03-05T09:55:45.140Z,41.69
2023-03-05T09:57:37.500Z,41.50
2023-03-05T09:59:18.147Z,40.49
2023-03-05T10:00:50.860Z,39.56
2023-03-05T10:02:27.085Z,40.83
2023-03-05T10:04:11.993Z,40.39
2023-03-05T10:05:45.944Z,38.62
2023-03-05T10:07:28.714Z,40.11
2023-03-05T10:09:05.082Z,39.44
2023-03-05T10:10:37.062Z,39.97
2023-03-05T10:12:15.063Z,40.45
2023-03-05T10:13:47.052Z,41.19
2023-03-05T10:15:36.111Z,41.11
2023-03-05T10:17:08.288Z,41.09
2023-03-05T10:19:03.511Z,38.99
2023-03-05T10:20:43.172Z,39.12
2023-03-05T10:22:29.228Z,38.29
2023-03-05T10:24:03.893Z,39.25
2023-03-05T10:25:35.920Z,39.77
2023-03-05T10:27:07.847Z,39.49
2023-03-05T10:28:44.048Z,39.77
2023-03-05T10:30:19.167Z,40.76
2023-03-05T10:31:51.254Z,40.25
2023-03-05T10:33:33.630Z,38.61
2023-03-05T10:35:11.610Z,39.06
2023-03-05T10:36:48.943Z,39.05
2023-03-05T10:38:32.756Z,39.67
2023-03-05T10:40:13.994Z,39.71
2023-03-05T10:41:54.938Z,39.16
2023-03-05T10:43:45.877Z,38.72
2023-03-05T10:45:19.346Z,37.84
2023-03-05T10:46:51.375Z,37.07
2023-03-05T10:48:32.675Z,37.21
2023-03-05T10:50:11.184Z,38.98
2023-03-05T10:51:52.360Z,39.17
2023-03-05T10:53:28.659Z,38.68
2023-03-05T10:55:00.801Z,39.33
2023-03-05T10:56:32.799Z,37.96
2023-03-05T10:58:11.043Z,39.15
2023-03-05T10:59:59.686Z,39.75
2023-03-05T11:01:32.750Z,37.62
2023-03-05T11:03:05.753Z,38.07
2023-03-05T11:04:38.876Z,38.58
2023-03-05T11:06:12.296Z,38.43
2023-03-05T11:07:44.220Z,37.89
2023-03-05T11:09:18.903Z,39.72
2023-03-05T11:11:04.044Z,38.36
2023-03-05T11:12:37.553Z,39.86
2023-03-05T11:14:23.858Z,39.19
2023-03-05T11:16:06.274Z,37.78
2023-03-05T11:17:45.083Z,37.43
2023-03-05T11:19:20.754Z,40.34
2023-03-05T11:20:52.876Z,38.40
2023-03-05T11:22:25.352Z,39.41
2023-03-05T11:24:19.228Z,39.21
2023-03-05T11:25:55.627Z,39.14
2023-03-05T11:27:33.469Z,38.33
2023-03-05T11:29:14.294Z,38.75
2023-03-05T11:30:55.186Z,39.69
2023-03-05T11:32:28.164Z,38.53
2023-03-05T11:34:01.701Z,37.94
2023-03-05T11:35:35.008Z,38.44
2023-03-05T11:37:08.413Z,38.68
2023-03-05T11:38:47.887Z,39.96
2023-03-05T11:40:21.681Z,38.31
2023-03-05T11:41:58.694Z,33.81
2023-03-05T11:43:30.736Z,35.27
2023-03-05T11:45:02.701Z,35.02
2023-03-05T11:46:37.955Z,35.98
2023-03-05T11:48:13.550Z,36.05
2023-03-05T11:49:46.684Z,34.74
2023-03-05T11:51:23.702Z,33.99
2023-03-05T11:53:02.454Z,35.02
2023-03-05T11:54:37.765Z,35.28
2023-03-05T11:56:19.474Z,37.05
2023-03-05T11:57:58.148Z,34.13
2023-03-05T11:59:31.864Z,36.30
2023-03-05T12:01:04.320Z,34.86
2023-03-05T12:02:37.335Z,33.36
2023-03-05T12:04:09.297Z,34.14
2023-03-05T12:05:42.619Z,36.34
2023-03-05T12:07:16.257Z,37.27
2023-03-05T12:08:52.189Z,36.17
2023-03-05T12:10:24.454Z,34.64
2023-03-05T12:12:02.710Z,33.40
2023-03-05T12:13:40.152Z,34.01
2023-03-05T12:15:16.580Z,33.53
2023-03-05T12:16:54.620Z,33.15
2023-03-05T12:18:29.415Z,33.83
2023-03-05T12:20:21.817Z,35.19
2023-03-05T12:21:53.716Z,35.33
2023-03-05T12:23:28.385Z,32.79
2023-03-05T12:25:18.507Z,32.97
2023-03-05T12:26:56.752Z,32.97
2023-03-05T12:28:34.592Z,35.50
2023-03-05T12:30:06.816Z,36.85
2023-03-05T12:31:39.633Z,38.31
2023-03-05T12:33:43.996Z,37.46
2023-03-05T12:35:23.101Z,39.00
2023-03-05T12:36:55.360Z,37.76
2023-03-05T12:38:33.339Z,38.31
2023-03-05T12:40:13.063Z,38.42
2023-03-05T12:41:45.007Z,38.41
2023-03-05T12:43:29.030Z,38.04
2023-03-05T12:45:10.132Z,37.65
2023-03-05T12:47:01.064Z,37.91
2023-03-05T12:48:33.188Z,36.53
2023-03-05T12:50:06.359Z,37.01
2023-03-05T12:51:39.372Z,35.79
2023-03-05T12:53:15.265Z,36.68
2023-03-05T12:54:47.719Z,35.84
2023-03-05T12:56:20.722Z,37.53
2023-03-05T12:58:11.585Z,38.23
2023-03-05T12:59:44.682Z,37.22
2023-03-05T13:01:19.411Z,37.84
2023-03-05T13:02:56.156Z,37.76
2023-03-05T13:04:29.760Z,38.31
2023-03-05T13:07:38.588Z,37.80
2023-03-05T13:09:21.999Z,37.02
2023-03-05T13:11:00.954Z,36.88
2023-03-05T13:12:35.678Z,36.85
2023-03-05T13:14:20.973Z,36.17
2023-03-05T13:15:52.914Z,36.48
2023-03-05T13:17:31.303Z,37.93
2023-03-05T13:19:03.516Z,38.11
2023-03-05T13:20:39.454Z,38.08
2023-03-05T13:22:11.946Z,38.15
2023-03-05T13:23:48.575Z,38.14
2023-03-05T13:25:21.528Z,37.97
2023-03-05T13:26:53.473Z,37.92
2023-03-05T13:28:25.622Z,38.62
2023-03-05T13:29:57.575Z,38.70
2023-03-05T13:31:29.576Z,39.10
2023-03-05T13:33:05.547Z,38.74
2023-03-05T13:34:47.090Z,39.01
2023-03-05T13:36:20.170Z,39.48
2023-03-05T13:37:52.053Z,38.56
2023-03-05T13:39:27.766Z,37.67
2023-03-05T13:41:07.354Z,38.04
2023-03-05T13:42:39.214Z,38.21
2023-03-05T13:44:19.005Z,38.94
2023-03-05T13:45:54.216Z,38.30
2023-03-05T13:47:28.874Z,38.39
2023-03-05T13:49:21.093Z,38.03
2023-03-05T13:50:59.643Z,38.36
2023-03-05T14:41:34.706Z,38.79
2023-03-05T14:43:06.902Z,39.01
2023-03-05T14:44:38.900Z,39.06
2023-03-05T14:46:12.308Z,38.52
2023-03-05T14:47:45.396Z,39.88
2023-03-05T14:49:17.726Z,40.19
2023-03-05T14:50:54.090Z,41.23
2023-03-05T14:52:27.470Z,40.45
2023-03-05T14:53:59.418Z,40.37
2023-03-05T14:55:32.396Z,40.87
2023-03-05T14:57:04.959Z,40.69
2023-03-05T14:58:39.042Z,40.85
2023-03-05T15:00:21.316Z,39.97
2023-03-05T15:01:53.235Z,40.01
2023-03-05T15:03:25.612Z,39.72
2023-03-05T15:04:57.472Z,40.13
2023-03-05T15:06:33.450Z,39.31
2023-03-05T15:08:05.445Z,39.35
2023-03-05T15:09:38.389Z,39.03
2023-03-05T15:11:11.495Z,39.54
2023-03-05T15:12:44.559Z,39.77
2023-03-05T15:14:16.648Z,40.16
2023-03-05T15:15:49.148Z,39.94
2023-03-05T15:17:23.391Z,39.68
2023-03-05T15:18:55.392Z,40.05
2023-03-05T15:20:28.325Z,39.95
2023-03-05T15:22:00.218Z,40.26
2023-03-05T15:23:36.808Z,40.94
2023-03-05T15:25:08.928Z,41.19
2023-03-05T15:26:41.083Z,41.07
2023-03-05T15:28:13.216Z,41.25
2023-03-05T15:29:45.183Z,41.01
2023-03-05T15:31:17.898Z,40.38
2023-03-05T15:32:50.132Z,40.21
2023-03-05T15:34:22.010Z,40.38
2023-03-05T15:35:54.358Z,40.38
2023-03-05T15:37:26.531Z,40.82
2023-03-05T15:40:34.896Z,41.22
2023-03-05T15:42:06.934Z,41.59
2023-03-05T15:43:39.034Z,41.76
2023-03-05T15:45:10.938Z,42.07
2023-03-05T15:46:43.096Z,41.44
2023-03-05T15:48:15.316Z,41.91
2023-03-05T15:49:47.306Z,42.11
2023-03-05T15:51:20.846Z,42.00
2023-03-05T15:52:53.014Z,41.61
2023-03-05T15:54:25.304Z,41.57
2023-03-05T15:55:57.207Z,41.74
2023-03-05T15:57:29.240Z,42.09
2023-03-05T15:59:01.691Z,42.44
2023-03-05T16:00:34.281Z,42.76
2023-03-05T16:02:06.277Z,43.44
2023-03-05T16:03:38.269Z,42.71
2023-03-05T16:05:10.672Z,42.76
2023-03-05T16:06:42.915Z,42.83
2023-03-05T16:08:14.804Z,42.67
2023-03-05T16:09:48.344Z,42.86
2023-03-05T16:11:20.331Z,43.11
2023-03-05T16:12:53.791Z,43.02
2023-03-05T16:14:26.218Z,43.31
2023-03-05T16:15:58.169Z,44.25
2023-03-05T16:17:30.193Z,43.50
2023-03-05T16:19:03.005Z,43.23
2023-03-05T16:20:36.646Z,43.60
2023-03-05T16:22:08.594Z,44.02
2023-03-05T16:23:40.445Z,44.21
2023-03-05T16:25:12.558Z,43.85
2023-03-05T16:26:44.427Z,44.52
2023-03-05T16:28:16.816Z,44.33
2023-03-05T16:29:48.779Z,43.81
2023-03-05T16:31:20.775Z,44.11
2023-03-05T16:32:53.802Z,44.35
2023-03-05T16:34:25.767Z,44.54
2023-03-05T16:36:13.022Z,44.89
2023-03-05T16:37:44.819Z,45.30
2023-03-05T16:39:16.808Z,45.34
2023-03-05T16:41:07.388Z,45.61
2023-03-05T16:42:40.158Z,45.73
2023-03-05T16:44:12.145Z,46.50
2023-03-05T16:45:44.067Z,45.98
2023-03-05T16:47:15.989Z,45.77
2023-03-05T16:48:48.001Z,46.36
2023-03-05T16:50:19.866Z,46.64
2023-03-05T16:51:51.860Z,45.93
2023-03-05T16:53:23.976Z,45.88
2023-03-05T16:54:56.081Z,45.99
2023-03-05T16:56:27.923Z,45.47
2023-03-05T16:57:59.949Z,45.24
2023-03-05T16:59:31.823Z,45.00
2023-03-05T17:01:07.161Z,45.31
2023-03-05T17:02:39.027Z,45.55
2023-03-05T17:04:10.994Z,45.82
2023-03-05T17:05:43.042Z,45.54
2023-03-05T17:07:14.923Z,45.82
2023-03-05T17:08:46.925Z,46.02
2023-03-05T17:10:18.976Z,46.30
2023-03-05T17:11:51.699Z,46.65
2023-03-05T17:13:23.928Z,46.92
2023-03-05T17:14:58.247Z,47.17
2023-03-05T17:16:30.491Z,46.66
2023-03-05T17:18:02.491Z,47.48
2023-03-05T17:19:34.690Z,47.16
2023-03-05T17:21:07.802Z,46.97
2023-03-05T17:22:39.749Z,47.17
2023-03-05T17:24:14.790Z,47.18
2023-03-05T17:25:46.758Z,47.35
2023-03-05T17:27:19.244Z,47.09
2023-03-05T17:28:53.019Z,46.96
2023-03-05T17:30:26.095Z,47.31
2023-03-05T17:31:58.100Z,47.41
2023-03-05T17:33:30.744Z,47.31
2023-03-05T17:35:04.441Z,47.28
2023-03-05T17:36:40.407Z,47.37
2023-03-05T17:38:12.298Z,47.67
2023-03-05T17:39:44.290Z,47.25
2023-03-05T17:41:16.975Z,47.70
2023-03-05T17:44:21.582Z,47.82
2023-03-05T17:45:53.481Z,47.99
2023-03-05T17:47:27.013Z,47.74
2023-03-05T17:48:59.008Z,47.71
2023-03-05T17:50:30.893Z,47.72
2023-03-05T17:52:02.779Z,48.28
2023-03-05T17:53:35.496Z,48.30
2023-03-05T17:55:10.357Z,48.16
2023-03-05T17:56:42.209Z,48.20
2023-03-05T17:58:14.188Z,48.59
2023-03-05T17:59:46.325Z,48.48
2023-03-05T18:01:25.201Z,48.36
2023-03-05T18:02:58.416Z,48.55
2023-03-05T18:04:30.346Z,48.92
2023-03-05T18:06:02.429Z,48.66
2023-03-05T18:07:34.364Z,48.70
2023-03-05T18:09:06.273Z,48.74
2023-03-05T18:10:38.191Z,48.50
2023-03-05T18:12:10.281Z,48.62
2023-03-05T18:13:43.208Z,48.66
2023-03-05T18:15:16.176Z,48.97
2023-03-05T18:16:48.062Z,48.89
2023-03-05T18:18:19.973Z,48.96
2023-03-05T18:19:51.947Z,48.67
2023-03-05T18:21:25.207Z,48.76
2023-03-05T18:22:57.510Z,48.67
2023-03-05T18:24:29.322Z,48.57
2023-03-05T18:26:01.252Z,48.78
2023-03-05T18:27:36.457Z,48.71
2023-03-05T18:29:08.370Z,48.88
2023-03-05T18:30:43.523Z,49.23
2023-03-05T18:32:15.396Z,48.93
2023-03-05T18:33:47.331Z,48.97
2023-03-05T18:35:19.406Z,49.46
2023-03-05T18:36:51.586Z,49.33
2023-03-05T18:38:24.030Z,49.19
2023-03-05T18:39:57.804Z,49.24
2023-03-05T18:41:32.587Z,48.65
2023-03-05T18:43:04.865Z,48.96
2023-03-05T18:44:36.809Z,49.40
2023-03-05T18:46:09.071Z,49.20
2023-03-05T18:47:42.512Z,49.50
2023-03-05T18:49:14.759Z,49.96
2023-03-05T18:50:46.673Z,49.70
2023-03-05T18:52:20.860Z,49.53
2023-03-05T18:53:55.280Z,49.42
2023-03-05T18:55:28.656Z,49.42
2023-03-05T18:57:00.512Z,49.29
2023-03-05T18:58:32.341Z,49.62
2023-03-05T19:00:04.328Z,49.23
2023-03-05T19:01:36.273Z,49.20
2023-03-05T19:03:08.600Z,49.09
2023-03-05T19:04:40.582Z,48.92
2023-03-05T19:06:12.587Z,49.21
2023-03-05T19:07:44.752Z,49.28
2023-03-05T19:09:39.197Z,49.56
2023-03-05T19:11:18.077Z,49.31
2023-03-05T19:13:27.911Z,49.41
2023-03-05T19:15:00.050Z,49.48
2023-03-05T19:16:38.604Z,49.42
2023-03-05T19:18:10.534Z,49.79
2023-03-05T19:19:45.325Z,50.01
2023-03-05T19:21:17.291Z,49.32
2023-03-05T19:22:51.243Z,49.50
2023-03-05T19:24:23.691Z,49.88
2023-03-05T19:25:55.696Z,49.62
2023-03-05T19:27:27.749Z,49.65
2023-03-05T19:28:59.788Z,49.74
2023-03-05T19:30:31.680Z,49.80
2023-03-05T19:32:04.543Z,49.91
2023-03-05T19:33:37.431Z,50.24
2023-03-05T19:35:09.527Z,50.44
2023-03-05T19:36:41.352Z,49.91
2023-03-05T19:38:13.465Z,49.78
2023-03-05T19:39:45.327Z,49.76
2023-03-05T19:41:18.325Z,50.23
2023-03-05T19:42:50.140Z,50.43
2023-03-05T19:44:22.172Z,50.47
2023-03-05T19:46:00.039Z,50.32
2023-03-05T19:47:31.892Z,50.69
2023-03-05T19:49:04.516Z,51.00
2023-03-05T19:50:36.356Z,50.87
2023-03-05T19:52:08.398Z,50.31
2023-03-05T19:53:40.841Z,50.39
2023-03-05T19:55:12.685Z,50.43
2023-03-05T19:56:45.195Z,50.34
2023-03-05T19:58:17.597Z,50.12
2023-03-05T19:59:52.966Z,50.59
2023-03-05T20:01:26.266Z,50.44
2023-03-05T20:02:58.096Z,50.50
2023-03-05T20:04:30.133Z,50.28
2023-03-05T20:06:02.094Z,50.10
2023-03-05T20:09:08.201Z,50.77
2023-03-05T20:10:40.205Z,50.39
2023-03-05T20:12:12.120Z,50.69
2023-03-05T20:13:44.058Z,50.18
2023-03-05T20:15:15.924Z,50.26
2023-03-05T20:16:47.965Z,50.08
2023-03-05T20:18:19.971Z,50.22
2023-03-05T20:19:51.868Z,49.78
2023-03-05T20:21:25.016Z,49.74
2023-03-05T20:22:56.979Z,49.77
2023-03-05T20:24:29.357Z,49.96
2023-03-05T20:26:01.379Z,49.56
2023-03-05T20:27:33.965Z,49.76
2023-03-05T20:29:06.485Z,49.88
2023-03-05T20:30:38.387Z,49.69
2023-03-05T20:32:10.310Z,49.53
2023-03-05T20:33:42.133Z,49.35
2023-03-05T20:35:14.930Z,49.61
2023-03-05T20:36:47.108Z,49.45
2023-03-05T20:38:30.924Z,49.42
2023-03-05T20:40:02.772Z,49.49
2023-03-05T20:43:11.035Z,49.48
2023-03-05T20:44:43.172Z,49.77
2023-03-05T20:46:15.970Z,49.72
2023-03-05T20:47:49.020Z,49.75
2023-03-05T20:49:23.018Z,49.67
2023-03-05T20:50:55.016Z,49.79
2023-03-05T20:52:26.804Z,50.14
2023-03-05T20:54:02.639Z,49.82
2023-03-05T20:55:34.816Z,49.79
2023-03-05T20:57:06.640Z,49.70
2023-03-05T20:58:38.516Z,49.79
2023-03-05T21:00:10.642Z,49.50
2023-03-05T21:01:42.615Z,49.70
2023-03-05T21:03:14.626Z,49.22
2023-03-05T21:04:46.546Z,49.75
2023-03-05T21:06:18.456Z,49.64
2023-03-05T21:07:50.590Z,49.71
2023-03-05T21:09:22.642Z,49.79
2023-03-05T21:10:54.529Z,49.43
2023-03-05T21:12:26.462Z,49.65
2023-03-05T21:13:58.374Z,49.54
2023-03-05T21:15:33.500Z,49.05
2023-03-05T21:17:05.701Z,49.51
2023-03-05T21:18:37.681Z,49.43
2023-03-05T21:20:10.268Z,49.44
2023-03-05T21:21:45.841Z,49.56